Levering, Michigan
Current Conditions -  °F | °C
As of 6:54 PM on Sunday 21 Dec 2014 (Local Time) from KPLN Reporting Station
Overcast Overcast  
Wind Chill: 24°   Ceiling: 4100
Heat Index: 32°   Visibility: 8mi
Dew Point: 28°   Wind: 10mph
Humidity: 85%   Direction: 150°SSE
Pressure: 30.13"   Gusts: NA
Location:  45.64°N, 84.79°W
Report Text: KPLN 212354Z AUTO 15009KT 8SM OVC041 00/M02 A3013 RMK AO2 SLP213 T00001022 10000 21017 58001
Loading
Personal Weather Stations






























Interactive Weather Map New forecast layout! Learn more

10-Day Weather Forecast

Advertisements
Track Severe Weather on mobile